sensor_id;sensor_type;location;lat;lon;timestamp;pressure;altitude;pressure_sealevel;temperature;humidity
39243;BME280;29823;47.404;8.566;2023-06-24T00:02:02;97251.50;;;16.56;100.00
39243;BME280;29823;47.404;8.566;2023-06-24T00:04:30;97248.31;;;16.59;100.00
39243;BME280;29823;47.404;8.566;2023-06-24T00:06:59;97259.59;;;16.56;100.00
39243;BME280;29823;47.404;8.566;2023-06-24T00:09:27;97258.59;;;16.62;100.00
39243;BME280;29823;47.404;8.566;2023-06-24T00:11:55;97256.41;;;16.59;100.00
39243;BME280;29823;47.404;8.566;2023-06-24T00:14:26;97259.16;;;16.64;100.00
39243;BME280;29823;47.404;8.566;2023-06-24T00:16:55;97238.50;;;16.53;100.00
39243;BME280;29823;47.404;8.566;2023-06-24T00:19:24;97268.28;;;16.58;100.00
39243;BME280;29823;47.404;8.566;2023-06-24T00:21:53;97239.34;;;16.37;100.00
39243;BME280;29823;47.404;8.566;2023-06-24T00:24:22;97263.94;;;16.57;100.00
39243;BME280;29823;47.404;8.566;2023-06-24T00:26:52;97255.78;;;16.52;100.00
39243;BME280;29823;47.404;8.566;2023-06-24T00:29:20;97260.59;;;16.50;100.00
39243;BME280;29823;47.404;8.566;2023-06-24T00:31:50;97270.66;;;16.55;100.00
39243;BME280;29823;47.404;8.566;2023-06-24T00:34:18;97267.06;;;16.49;100.00
39243;BME280;29823;47.404;8.566;2023-06-24T00:36:47;97273.69;;;16.58;100.00
39243;BME280;29823;47.404;8.566;2023-06-24T00:39:14;97269.34;;;16.57;100.00
39243;BME280;29823;47.404;8.566;2023-06-24T00:41:42;97271.84;;;16.42;100.00
39243;BME280;29823;47.404;8.566;2023-06-24T00:44:10;97268.81;;;16.39;100.00
39243;BME280;29823;47.404;8.566;2023-06-24T00:46:38;97273.28;;;16.50;100.00
39243;BME280;29823;47.404;8.566;2023-06-24T00:49:07;97274.34;;;16.49;100.00
39243;BME280;29823;47.404;8.566;2023-06-24T00:51:36;97279.84;;;16.37;100.00
39243;BME280;29823;47.404;8.566;2023-06-24T00:54:06;97264.06;;;16.29;100.00
39243;BME280;29823;47.404;8.566;2023-06-24T00:56:36;97273.84;;;16.35;100.00
39243;BME280;29823;47.404;8.566;2023-06-24T00:59:06;97275.50;;;16.36;100.00
39243;BME280;29823;47.404;8.566;2023-06-24T01:01:35;97267.66;;;16.18;100.00
39243;BME280;29823;47.404;8.566;2023-06-24T01:04:03;97275.91;;;16.28;100.00
39243;BME280;29823;47.404;8.566;2023-06-24T01:06:35;97273.34;;;16.17;100.00
39243;BME280;29823;47.404;8.566;2023-06-24T01:09:03;97269.31;;;16.19;100.00
39243;BME280;29823;47.404;8.566;2023-06-24T01:11:32;97273.81;;;16.30;100.00
39243;BME280;29823;47.404;8.566;2023-06-24T01:14:00;97269.38;;;16.24;100.00
39243;BME280;29823;47.404;8.566;2023-06-24T01:16:37;97270.53;;;16.28;100.00
39243;BME280;29823;47.404;8.566;2023-06-24T01:19:22;97271.34;;;16.29;100.00
39243;BME280;29823;47.404;8.566;2023-06-24T01:22:04;97278.75;;;16.38;100.00
39243;BME280;29823;47.404;8.566;2023-06-24T01:24:48;97268.22;;;16.37;100.00
39243;BME280;29823;47.404;8.566;2023-06-24T01:27:37;97275.50;;;16.36;100.00
39243;BME280;29823;47.404;8.566;2023-06-24T01:30:36;97274.59;;;16.47;100.00
39243;BME280;29823;47.404;8.566;2023-06-24T01:33:12;97276.44;;;16.25;100.00
39243;BME280;29823;47.404;8.566;2023-06-24T01:35:42;97271.03;;;16.25;100.00
39243;BME280;29823;47.404;8.566;2023-06-24T01:38:24;97273.59;;;16.15;100.00
39243;BME280;29823;47.404;8.566;2023-06-24T01:40:55;97272.59;;;16.05;100.00
39243;BME280;29823;47.404;8.566;2023-06-24T01:43:23;97272.50;;;16.00;100.00
39243;BME280;29823;47.404;8.566;2023-06-24T01:45:54;97274.78;;;16.24;100.00
39243;BME280;29823;47.404;8.566;2023-06-24T01:48:27;97275.44;;;16.15;100.00
39243;BME280;29823;47.404;8.566;2023-06-24T01:50:58;97268.59;;;16.07;100.00
39243;BME280;29823;47.404;8.566;2023-06-24T01:53:27;97264.50;;;16.05;100.00
39243;BME280;29823;47.404;8.566;2023-06-24T01:55:57;97269.50;;;15.96;100.00
39243;BME280;29823;47.404;8.566;2023-06-24T01:58:27;97268.50;;;16.02;100.00
39243;BME280;29823;47.404;8.566;2023-06-24T02:00:56;97266.47;;;15.93;100.00
39243;BME280;29823;47.404;8.566;2023-06-24T02:03:27;97261.84;;;15.88;100.00
39243;BME280;29823;47.404;8.566;2023-06-24T02:05:56;97259.06;;;15.83;100.00
39243;BME280;29823;47.404;8.566;2023-06-24T02:08:25;97264.84;;;15.75;100.00
39243;BME280;29823;47.404;8.566;2023-06-24T02:10:54;97264.75;;;15.70;100.00
39243;BME280;29823;47.404;8.566;2023-06-24T02:13:23;97252.50;;;15.79;100.00
39243;BME280;29823;47.404;8.566;2023-06-24T02:15:53;97271.72;;;15.83;100.00
39243;BME280;29823;47.404;8.566;2023-06-24T02:18:22;97274.34;;;15.61;100.00
39243;BME280;29823;47.404;8.566;2023-06-24T02:20:52;97268.25;;;15.54;100.00
39243;BME280;29823;47.404;8.566;2023-06-24T02:23:22;97266.97;;;15.40;100.00
39243;BME280;29823;47.404;8.566;2023-06-24T02:25:51;97260.84;;;15.45;100.00
39243;BME280;29823;47.404;8.566;2023-06-24T02:28:19;97261.47;;;15.52;100.00
39243;BME280;29823;47.404;8.566;2023-06-24T02:30:47;97260.41;;;15.36;100.00
39243;BME280;29823;47.404;8.566;2023-06-24T02:33:15;97260.28;;;15.59;100.00
39243;BME280;29823;47.404;8.566;2023-06-24T02:35:43;97269.56;;;15.52;100.00
39243;BME280;29823;47.404;8.566;2023-06-24T02:38:14;97272.13;;;15.58;100.00
39243;BME280;29823;47.404;8.566;2023-06-24T02:40:43;97271.22;;;15.53;100.00
39243;BME280;29823;47.404;8.566;2023-06-24T02:43:11;97268.44;;;15.48;100.00
39243;BME280;29823;47.404;8.566;2023-06-24T02:45:39;97273.75;;;15.59;100.00
39243;BME280;29823;47.404;8.566;2023-06-24T02:48:08;97272.63;;;15.55;100.00
39243;BME280;29823;47.404;8.566;2023-06-24T02:50:37;97265.81;;;15.36;100.00
39243;BME280;29823;47.404;8.566;2023-06-24T02:53:07;97282.25;;;15.51;100.00
39243;BME280;29823;47.404;8.566;2023-06-24T02:55:37;97275.78;;;15.52;100.00
39243;BME280;29823;47.404;8.566;2023-06-24T02:58:06;97274.81;;;15.42;100.00
39243;BME280;29823;47.404;8.566;2023-06-24T03:00:35;97274.16;;;15.51;100.00
39243;BME280;29823;47.404;8.566;2023-06-24T03:03:04;97271.47;;;15.51;100.00
39243;BME280;29823;47.404;8.566;2023-06-24T03:05:34;97272.25;;;15.52;100.00
39243;BME280;29823;47.404;8.566;2023-06-24T03:08:03;97271.06;;;15.31;100.00
39243;BME280;29823;47.404;8.566;2023-06-24T03:10:31;97277.84;;;15.17;100.00
39243;BME280;29823;47.404;8.566;2023-06-24T03:13:00;97279.47;;;15.18;100.00
39243;BME280;29823;47.404;8.566;2023-06-24T03:15:28;97281.97;;;15.08;100.00
39243;BME280;29823;47.404;8.566;2023-06-24T03:17:56;97285.81;;;15.12;100.00
39243;BME280;29823;47.404;8.566;2023-06-24T03:20:24;97284.16;;;15.11;100.00
39243;BME280;29823;47.404;8.566;2023-06-24T03:22:53;97282.34;;;15.00;100.00
39243;BME280;29823;47.404;8.566;2023-06-24T03:25:22;97284.38;;;14.82;100.00
39243;BME280;29823;47.404;8.566;2023-06-24T03:27:50;97284.00;;;15.01;100.00
39243;BME280;29823;47.404;8.566;2023-06-24T03:30:19;97286.59;;;14.96;100.00
39243;BME280;29823;47.404;8.566;2023-06-24T03:32:47;97287.34;;;15.08;100.00
39243;BME280;29823;47.404;8.566;2023-06-24T03:35:15;97294.47;;;15.14;100.00
39243;BME280;29823;47.404;8.566;2023-06-24T03:37:43;97298.88;;;15.20;100.00
39243;BME280;29823;47.404;8.566;2023-06-24T03:40:12;97292.44;;;15.21;100.00
39243;BME280;29823;47.404;8.566;2023-06-24T03:42:40;97294.91;;;15.23;100.00
39243;BME280;29823;47.404;8.566;2023-06-24T03:45:08;97294.66;;;15.24;100.00
39243;BME280;29823;47.404;8.566;2023-06-24T03:47:37;97292.53;;;15.26;100.00
39243;BME280;29823;47.404;8.566;2023-06-24T03:50:06;97292.06;;;15.29;100.00
39243;BME280;29823;47.404;8.566;2023-06-24T03:52:34;97289.59;;;15.39;100.00
39243;BME280;29823;47.404;8.566;2023-06-24T03:55:02;97295.06;;;15.44;100.00
39243;BME280;29823;47.404;8.566;2023-06-24T03:57:31;97288.72;;;15.50;100.00
39243;BME280;29823;47.404;8.566;2023-06-24T03:59:59;97289.50;;;15.51;100.00
39243;BME280;29823;47.404;8.566;2023-06-24T04:02:27;97295.59;;;15.58;100.00
39243;BME280;29823;47.404;8.566;2023-06-24T04:04:57;97292.47;;;15.49;100.00
39243;BME280;29823;47.404;8.566;2023-06-24T04:07:25;97303.66;;;15.58;100.00
39243;BME280;29823;47.404;8.566;2023-06-24T04:09:55;97305.06;;;15.60;100.00
39243;BME280;29823;47.404;8.566;2023-06-24T04:12:23;97304.69;;;15.57;100.00
39243;BME280;29823;47.404;8.566;2023-06-24T04:14:51;97309.94;;;15.63;100.00
39243;BME280;29823;47.404;8.566;2023-06-24T04:17:19;97308.09;;;15.64;100.00
39243;BME280;29823;47.404;8.566;2023-06-24T04:19:47;97305.81;;;15.72;100.00
39243;BME280;29823;47.404;8.566;2023-06-24T04:22:17;97317.31;;;15.84;100.00
39243;BME280;29823;47.404;8.566;2023-06-24T04:24:44;97309.22;;;15.84;100.00
39243;BME280;29823;47.404;8.566;2023-06-24T04:27:12;97314.16;;;15.87;100.00
39243;BME280;29823;47.404;8.566;2023-06-24T04:29:40;97311.09;;;16.00;100.00
39243;BME280;29823;47.404;8.566;2023-06-24T04:32:08;97305.81;;;16.05;100.00
39243;BME280;29823;47.404;8.566;2023-06-24T04:34:36;97305.84;;;16.27;100.00
39243;BME280;29823;47.404;8.566;2023-06-24T04:37:03;97312.16;;;16.32;100.00
39243;BME280;29823;47.404;8.566;2023-06-24T04:39:33;97315.16;;;16.36;100.00
39243;BME280;29823;47.404;8.566;2023-06-24T04:42:00;97319.03;;;16.40;100.00
39243;BME280;29823;47.404;8.566;2023-06-24T04:44:28;97323.53;;;16.51;100.00
39243;BME280;29823;47.404;8.566;2023-06-24T04:46:56;97320.50;;;16.47;100.00
39243;BME280;29823;47.404;8.566;2023-06-24T04:49:24;97322.97;;;16.70;100.00
39243;BME280;29823;47.404;8.566;2023-06-24T04:51:52;97311.38;;;16.91;100.00
39243;BME280;29823;47.404;8.566;2023-06-24T04:54:20;97323.72;;;16.87;100.00
39243;BME280;29823;47.404;8.566;2023-06-24T04:56:49;97319.97;;;16.88;100.00
39243;BME280;29823;47.404;8.566;2023-06-24T04:59:18;97324.59;;;17.14;100.00
39243;BME280;29823;47.404;8.566;2023-06-24T05:01:46;97320.88;;;17.20;100.00
39243;BME280;29823;47.404;8.566;2023-06-24T05:04:13;97324.94;;;17.39;100.00
39243;BME280;29823;47.404;8.566;2023-06-24T05:06:41;97327.94;;;17.43;100.00
39243;BME280;29823;47.404;8.566;2023-06-24T05:09:09;97333.16;;;17.49;100.00
39243;BME280;29823;47.404;8.566;2023-06-24T05:11:40;97332.19;;;17.60;100.00
39243;BME280;29823;47.404;8.566;2023-06-24T05:14:09;97337.59;;;17.60;100.00
39243;BME280;29823;47.404;8.566;2023-06-24T05:16:37;97330.44;;;17.76;100.00
39243;BME280;29823;47.404;8.566;2023-06-24T05:19:05;97334.47;;;17.73;100.00
39243;BME280;29823;47.404;8.566;2023-06-24T05:21:32;97339.53;;;17.96;100.00
39243;BME280;29823;47.404;8.566;2023-06-24T05:24:00;97348.28;;;18.03;100.00
39243;BME280;29823;47.404;8.566;2023-06-24T05:26:28;97338.50;;;18.02;100.00
39243;BME280;29823;47.404;8.566;2023-06-24T05:28:56;97343.75;;;18.14;100.00
39243;BME280;29823;47.404;8.566;2023-06-24T05:31:25;97341.97;;;18.24;100.00
39243;BME280;29823;47.404;8.566;2023-06-24T05:33:53;97348.53;;;18.02;100.00
39243;BME280;29823;47.404;8.566;2023-06-24T05:36:21;97341.03;;;18.14;100.00
39243;BME280;29823;47.404;8.566;2023-06-24T05:38:48;97339.25;;;18.29;100.00
39243;BME280;29823;47.404;8.566;2023-06-24T05:41:16;97342.03;;;18.34;100.00
39243;BME280;29823;47.404;8.566;2023-06-24T05:43:44;97338.41;;;18.55;100.00
39243;BME280;29823;47.404;8.566;2023-06-24T05:46:12;97340.22;;;18.45;100.00
39243;BME280;29823;47.404;8.566;2023-06-24T05:48:41;97341.69;;;18.26;100.00
39243;BME280;29823;47.404;8.566;2023-06-24T05:51:09;97346.66;;;18.75;100.00
39243;BME280;29823;47.404;8.566;2023-06-24T05:53:36;97344.28;;;18.89;100.00
39243;BME280;29823;47.404;8.566;2023-06-24T05:56:04;97332.28;;;18.75;100.00
39243;BME280;29823;47.404;8.566;2023-06-24T05:58:32;97347.53;;;18.91;100.00
39243;BME280;29823;47.404;8.566;2023-06-24T06:01:00;97346.75;;;18.90;100.00
39243;BME280;29823;47.404;8.566;2023-06-24T06:03:28;97346.31;;;19.13;100.00
39243;BME280;29823;47.404;8.566;2023-06-24T06:05:57;97344.56;;;18.92;100.00
39243;BME280;29823;47.404;8.566;2023-06-24T06:08:25;97350.19;;;19.22;100.00
39243;BME280;29823;47.404;8.566;2023-06-24T06:10:53;97344.13;;;19.15;100.00
39243;BME280;29823;47.404;8.566;2023-06-24T06:13:21;97346.13;;;19.30;100.00
39243;BME280;29823;47.404;8.566;2023-06-24T06:15:49;97339.38;;;19.32;100.00
39243;BME280;29823;47.404;8.566;2023-06-24T06:18:17;97336.69;;;19.47;100.00
39243;BME280;29823;47.404;8.566;2023-06-24T06:20:45;97333.75;;;19.69;100.00
39243;BME280;29823;47.404;8.566;2023-06-24T06:23:14;97337.28;;;19.79;100.00
39243;BME280;29823;47.404;8.566;2023-06-24T06:25:42;97335.41;;;19.90;100.00
39243;BME280;29823;47.404;8.566;2023-06-24T06:28:14;97337.63;;;20.18;100.00
39243;BME280;29823;47.404;8.566;2023-06-24T06:30:43;97334.91;;;20.13;100.00
39243;BME280;29823;47.404;8.566;2023-06-24T06:33:11;97333.28;;;20.32;100.00
39243;BME280;29823;47.404;8.566;2023-06-24T06:35:39;97333.75;;;20.69;100.00
39243;BME280;29823;47.404;8.566;2023-06-24T06:38:06;97336.97;;;20.96;100.00
39243;BME280;29823;47.404;8.566;2023-06-24T06:40:37;97330.94;;;21.14;100.00
39243;BME280;29823;47.404;8.566;2023-06-24T06:43:04;97325.81;;;21.02;100.00
39243;BME280;29823;47.404;8.566;2023-06-24T06:45:32;97328.50;;;21.12;98.07
39243;BME280;29823;47.404;8.566;2023-06-24T06:48:01;97330.53;;;21.45;97.79
39243;BME280;29823;47.404;8.566;2023-06-24T06:50:33;97330.16;;;21.08;100.00
39243;BME280;29823;47.404;8.566;2023-06-24T06:53:01;97327.53;;;20.68;100.00
39243;BME280;29823;47.404;8.566;2023-06-24T06:55:29;97334.91;;;21.36;95.85
39243;BME280;29823;47.404;8.566;2023-06-24T06:57:58;97320.28;;;21.27;91.90
39243;BME280;29823;47.404;8.566;2023-06-24T07:00:26;97330.09;;;21.77;87.07
39243;BME280;29823;47.404;8.566;2023-06-24T07:02:54;97330.84;;;21.87;87.19
39243;BME280;29823;47.404;8.566;2023-06-24T07:05:21;97328.44;;;21.81;86.61
39243;BME280;29823;47.404;8.566;2023-06-24T07:07:49;97327.63;;;21.85;91.97
39243;BME280;29823;47.404;8.566;2023-06-24T07:10:17;97315.31;;;21.88;86.78
39243;BME280;29823;47.404;8.566;2023-06-24T07:12:45;97313.31;;;22.03;86.73
39243;BME280;29823;47.404;8.566;2023-06-24T07:15:14;97316.47;;;22.15;90.67
39243;BME280;29823;47.404;8.566;2023-06-24T07:17:46;97315.38;;;22.16;88.23
39243;BME280;29823;47.404;8.566;2023-06-24T07:20:13;97319.72;;;22.79;84.49
39243;BME280;29823;47.404;8.566;2023-06-24T07:22:41;97319.19;;;22.77;86.16
39243;BME280;29823;47.404;8.566;2023-06-24T07:25:09;97316.25;;;23.21;86.38
39243;BME280;29823;47.404;8.566;2023-06-24T07:27:37;97323.44;;;23.35;81.85
39243;BME280;29823;47.404;8.566;2023-06-24T07:30:06;97311.66;;;23.40;77.79
39243;BME280;29823;47.404;8.566;2023-06-24T07:32:36;97318.50;;;23.37;77.87
39243;BME280;29823;47.404;8.566;2023-06-24T07:35:05;97312.81;;;23.10;78.38
39243;BME280;29823;47.404;8.566;2023-06-24T07:37:34;97305.84;;;22.99;77.42
39243;BME280;29823;47.404;8.566;2023-06-24T07:40:02;97317.69;;;23.37;75.41
39243;BME280;29823;47.404;8.566;2023-06-24T07:42:31;97304.31;;;23.12;75.00
39243;BME280;29823;47.404;8.566;2023-06-24T07:44:59;97308.13;;;23.76;72.39
39243;BME280;29823;47.404;8.566;2023-06-24T07:47:27;97299.16;;;23.52;68.95
39243;BME280;29823;47.404;8.566;2023-06-24T07:49:56;97299.94;;;24.13;68.20
39243;BME280;29823;47.404;8.566;2023-06-24T07:52:24;97291.91;;;24.35;65.24
39243;BME280;29823;47.404;8.566;2023-06-24T07:54:51;97287.69;;;24.56;63.54
39243;BME280;29823;47.404;8.566;2023-06-24T07:57:19;97294.13;;;24.33;63.97
39243;BME280;29823;47.404;8.566;2023-06-24T07:59:47;97285.16;;;24.14;62.35
39243;BME280;29823;47.404;8.566;2023-06-24T08:02:15;97282.59;;;24.36;61.65
39243;BME280;29823;47.404;8.566;2023-06-24T08:04:43;97280.88;;;24.08;63.51
39243;BME280;29823;47.404;8.566;2023-06-24T08:07:13;97279.78;;;24.55;62.69
39243;BME280;29823;47.404;8.566;2023-06-24T08:09:41;97269.53;;;24.33;61.70
39243;BME280;29823;47.404;8.566;2023-06-24T08:12:10;97272.28;;;24.47;60.77
39243;BME280;29823;47.404;8.566;2023-06-24T08:14:37;97258.34;;;24.62;61.52
39243;BME280;29823;47.404;8.566;2023-06-24T08:17:05;97270.03;;;25.35;59.52
39243;BME280;29823;47.404;8.566;2023-06-24T08:19:33;97264.03;;;25.33;60.26
39243;BME280;29823;47.404;8.566;2023-06-24T08:22:01;97269.25;;;25.56;59.31
39243;BME280;29823;47.404;8.566;2023-06-24T08:24:30;97265.88;;;24.83;59.28
39243;BME280;29823;47.404;8.566;2023-06-24T08:26:58;97257.13;;;25.22;56.99
39243;BME280;29823;47.404;8.566;2023-06-24T08:29:26;97266.56;;;24.75;61.60
39243;BME280;29823;47.404;8.566;2023-06-24T08:31:54;97252.97;;;25.87;55.76
39243;BME280;29823;47.404;8.566;2023-06-24T08:34:21;97256.81;;;25.23;55.64
39243;BME280;29823;47.404;8.566;2023-06-24T08:36:52;97255.31;;;25.31;56.38
39243;BME280;29823;47.404;8.566;2023-06-24T08:39:20;97249.94;;;25.75;55.18
39243;BME280;29823;47.404;8.566;2023-06-24T08:41:49;97251.94;;;26.49;55.06
39243;BME280;29823;47.404;8.566;2023-06-24T08:44:17;97254.31;;;26.64;55.17
39243;BME280;29823;47.404;8.566;2023-06-24T08:46:44;97244.44;;;25.75;55.52
39243;BME280;29823;47.404;8.566;2023-06-24T08:49:25;97246.69;;;26.08;56.51
39243;BME280;29823;47.404;8.566;2023-06-24T08:52:00;97249.25;;;26.57;54.25
39243;BME280;29823;47.404;8.566;2023-06-24T08:54:28;97252.38;;;26.42;53.78
39243;BME280;29823;47.404;8.566;2023-06-24T08:56:59;97250.72;;;26.94;53.49
39243;BME280;29823;47.404;8.566;2023-06-24T08:59:28;97243.00;;;26.43;52.87
39243;BME280;29823;47.404;8.566;2023-06-24T09:01:55;97249.75;;;26.37;53.11
39243;BME280;29823;47.404;8.566;2023-06-24T09:04:23;97242.94;;;27.26;52.37
39243;BME280;29823;47.404;8.566;2023-06-24T09:06:51;97244.13;;;27.76;51.17
39243;BME280;29823;47.404;8.566;2023-06-24T09:09:19;97248.47;;;27.43;50.48
39243;BME280;29823;47.404;8.566;2023-06-24T09:11:51;97245.22;;;26.94;49.71
39243;BME280;29823;47.404;8.566;2023-06-24T09:14:21;97235.41;;;26.10;49.17
39243;BME280;29823;47.404;8.566;2023-06-24T09:16:53;97233.72;;;26.22;49.38
39243;BME280;29823;47.404;8.566;2023-06-24T09:19:22;97233.72;;;26.22;48.66
39243;BME280;29823;47.404;8.566;2023-06-24T09:21:50;97225.91;;;26.68;49.95
39243;BME280;29823;47.404;8.566;2023-06-24T09:24:19;97240.25;;;27.04;47.92
39243;BME280;29823;47.404;8.566;2023-06-24T09:26:47;97234.53;;;27.31;48.29
39243;BME280;29823;47.404;8.566;2023-06-24T09:29:15;97232.59;;;27.40;46.09
39243;BME280;29823;47.404;8.566;2023-06-24T09:31:48;97225.19;;;26.85;48.17
39243;BME280;29823;47.404;8.566;2023-06-24T09:34:16;97233.13;;;27.76;45.21
39243;BME280;29823;47.404;8.566;2023-06-24T09:36:44;97226.34;;;27.65;46.23
39243;BME280;29823;47.404;8.566;2023-06-24T09:39:12;97218.56;;;27.42;44.95
39243;BME280;29823;47.404;8.566;2023-06-24T09:41:54;97211.84;;;28.53;46.60
39243;BME280;29823;47.404;8.566;2023-06-24T09:44:22;97220.81;;;27.40;45.57
39243;BME280;29823;47.404;8.566;2023-06-24T09:46:51;97217.25;;;27.56;45.31
39243;BME280;29823;47.404;8.566;2023-06-24T09:49:19;97208.72;;;27.83;45.45
39243;BME280;29823;47.404;8.566;2023-06-24T09:51:49;97199.00;;;27.43;46.83
39243;BME280;29823;47.404;8.566;2023-06-24T09:54:17;97210.63;;;28.25;44.37
39243;BME280;29823;47.404;8.566;2023-06-24T09:56:48;97213.19;;;28.30;44.46
39243;BME280;29823;47.404;8.566;2023-06-24T09:59:18;97210.88;;;28.95;43.47
39243;BME280;29823;47.404;8.566;2023-06-24T10:01:48;97200.19;;;28.56;43.13
39243;BME280;29823;47.404;8.566;2023-06-24T10:04:19;97202.56;;;28.75;43.31
39243;BME280;29823;47.404;8.566;2023-06-24T10:06:49;97202.41;;;27.57;43.22
39243;BME280;29823;47.404;8.566;2023-06-24T10:09:17;97199.91;;;28.49;44.82
39243;BME280;29823;47.404;8.566;2023-06-24T10:11:46;97197.38;;;27.76;43.57
39243;BME280;29823;47.404;8.566;2023-06-24T10:14:14;97184.00;;;29.01;42.90
39243;BME280;29823;47.404;8.566;2023-06-24T10:16:42;97192.97;;;28.26;42.64
39243;BME280;29823;47.404;8.566;2023-06-24T10:19:20;97184.84;;;28.84;42.31
39243;BME280;29823;47.404;8.566;2023-06-24T10:21:51;97187.38;;;28.69;41.69
39243;BME280;29823;47.404;8.566;2023-06-24T10:24:28;97184.03;;;29.21;41.83
39243;BME280;29823;47.404;8.566;2023-06-24T10:27:04;97178.28;;;29.55;41.02
39243;BME280;29823;47.404;8.566;2023-06-24T10:29:35;97182.69;;;29.56;41.26
39243;BME280;29823;47.404;8.566;2023-06-24T10:32:05;97172.78;;;28.68;43.42
39243;BME280;29823;47.404;8.566;2023-06-24T10:34:39;97179.84;;;29.15;41.59
39243;BME280;29823;47.404;8.566;2023-06-24T10:37:12;97171.31;;;29.08;41.45
39243;BME280;29823;47.404;8.566;2023-06-24T10:39:45;97170.66;;;29.52;41.62
39243;BME280;29823;47.404;8.566;2023-06-24T10:42:38;97178.41;;;28.43;39.83
39243;BME280;29823;47.404;8.566;2023-06-24T10:45:16;97173.16;;;29.45;38.79
39243;BME280;29823;47.404;8.566;2023-06-24T10:47:45;97180.44;;;28.92;38.99
39243;BME280;29823;47.404;8.566;2023-06-24T10:50:17;97160.94;;;28.76;40.43
39243;BME280;29823;47.404;8.566;2023-06-24T10:52:45;97164.66;;;29.09;38.75
39243;BME280;29823;47.404;8.566;2023-06-24T10:55:14;97173.69;;;29.18;39.76
39243;BME280;29823;47.404;8.566;2023-06-24T10:57:43;97166.69;;;30.47;36.63
39243;BME280;29823;47.404;8.566;2023-06-24T11:00:12;97152.44;;;29.80;37.37
39243;BME280;29823;47.404;8.566;2023-06-24T11:02:40;97141.25;;;29.97;35.67
39243;BME280;29823;47.404;8.566;2023-06-24T11:05:09;97156.41;;;29.50;36.40
39243;BME280;29823;47.404;8.566;2023-06-24T11:07:38;97141.28;;;30.42;35.53
39243;BME280;29823;47.404;8.566;2023-06-24T11:10:09;97144.56;;;30.68;35.55
39243;BME280;29823;47.404;8.566;2023-06-24T11:12:40;97139.41;;;29.89;35.91
39243;BME280;29823;47.404;8.566;2023-06-24T11:15:11;97129.41;;;30.41;35.14
39243;BME280;29823;47.404;8.566;2023-06-24T11:17:40;97123.63;;;30.67;34.81
39243;BME280;29823;47.404;8.566;2023-06-24T11:20:09;97119.53;;;31.76;32.85
39243;BME280;29823;47.404;8.566;2023-06-24T11:22:39;97116.00;;;30.76;33.67
39243;BME280;29823;47.404;8.566;2023-06-24T11:25:14;97107.47;;;30.57;35.84
39243;BME280;29823;47.404;8.566;2023-06-24T11:27:43;97108.22;;;32.70;32.74
39243;BME280;29823;47.404;8.566;2023-06-24T11:30:12;97097.94;;;31.81;30.44
39243;BME280;29823;47.404;8.566;2023-06-24T11:32:42;97108.59;;;31.67;31.33
39243;BME280;29823;47.404;8.566;2023-06-24T11:35:12;97106.03;;;31.74;30.21
39243;BME280;29823;47.404;8.566;2023-06-24T11:37:44;97105.38;;;31.26;33.71
39243;BME280;29823;47.404;8.566;2023-06-24T11:40:16;97097.97;;;33.21;31.21
39243;BME280;29823;47.404;8.566;2023-06-24T11:42:48;97108.41;;;32.03;30.70
39243;BME280;29823;47.404;8.566;2023-06-24T11:45:20;97101.41;;;32.52;30.99
39243;BME280;29823;47.404;8.566;2023-06-24T11:47:48;97095.13;;;32.36;30.61
39243;BME280;29823;47.404;8.566;2023-06-24T11:50:16;97077.13;;;32.30;31.23
39243;BME280;29823;47.404;8.566;2023-06-24T11:52:47;97083.13;;;32.32;32.81
39243;BME280;29823;47.404;8.566;2023-06-24T11:55:20;97092.31;;;31.38;31.57
39243;BME280;29823;47.404;8.566;2023-06-24T11:57:53;97075.69;;;32.21;31.45
39243;BME280;29823;47.404;8.566;2023-06-24T12:00:25;97072.69;;;32.26;30.67
39243;BME280;29823;47.404;8.566;2023-06-24T12:02:53;97074.50;;;32.99;30.68
39243;BME280;29823;47.404;8.566;2023-06-24T12:05:27;97075.75;;;31.93;31.57
39243;BME280;29823;47.404;8.566;2023-06-24T12:07:57;97063.78;;;31.89;nan
39243;BME280;29823;47.404;8.566;2023-06-24T12:10:26;97056.81;;;33.23;32.08
39243;BME280;29823;47.404;8.566;2023-06-24T12:12:56;97054.44;;;33.06;30.90
39243;BME280;29823;47.404;8.566;2023-06-24T12:15:24;97057.47;;;32.20;32.89
39243;BME280;29823;47.404;8.566;2023-06-24T12:17:52;97046.53;;;31.80;32.58
39243;BME280;29823;47.404;8.566;2023-06-24T12:20:20;97036.00;;;33.13;33.13
39243;BME280;29823;47.404;8.566;2023-06-24T12:22:49;97060.69;;;33.18;31.96
39243;BME280;29823;47.404;8.566;2023-06-24T12:25:18;97054.47;;;31.27;34.49
39243;BME280;29823;47.404;8.566;2023-06-24T12:27:46;97043.38;;;30.63;35.35
39243;BME280;29823;47.404;8.566;2023-06-24T12:30:14;97042.09;;;32.69;33.40
39243;BME280;29823;47.404;8.566;2023-06-24T12:32:43;97045.38;;;33.43;32.92
39243;BME280;29823;47.404;8.566;2023-06-24T12:35:12;97058.44;;;33.62;32.92
39243;BME280;29823;47.404;8.566;2023-06-24T12:37:40;97047.31;;;33.24;32.92
39243;BME280;29823;47.404;8.566;2023-06-24T12:40:08;97027.09;;;33.04;33.23
39243;BME280;29823;47.404;8.566;2023-06-24T12:42:38;97035.38;;;33.39;32.83
39243;BME280;29823;47.404;8.566;2023-06-24T12:45:07;97029.63;;;33.66;33.20
39243;BME280;29823;47.404;8.566;2023-06-24T12:47:35;97037.53;;;33.68;33.77
39243;BME280;29823;47.404;8.566;2023-06-24T12:50:03;97029.16;;;33.64;32.13
39243;BME280;29823;47.404;8.566;2023-06-24T12:52:35;97025.22;;;33.84;32.83
39243;BME280;29823;47.404;8.566;2023-06-24T12:55:05;97026.78;;;34.49;32.79
39243;BME280;29823;47.404;8.566;2023-06-24T12:57:34;97033.34;;;32.82;32.61
39243;BME280;29823;47.404;8.566;2023-06-24T13:00:05;97028.25;;;31.91;35.73
39243;BME280;29823;47.404;8.566;2023-06-24T13:02:35;97030.84;;;33.50;33.61
39243;BME280;29823;47.404;8.566;2023-06-24T13:05:03;97028.38;;;33.45;32.05
39243;BME280;29823;47.404;8.566;2023-06-24T13:07:32;97024.38;;;34.03;32.45